This is the latest recevied weather packets stored in our database for station/object W3UGI. If no packets are shown the sender has not sent any weather packets the latest 1 day(s).
| Time | Temp. | Humidity | Pressure | Rain* | Wind** | Luminosity | Snow |
|---|---|---|---|---|---|---|---|
| 1777980834 | 16.67° C | 71% | 1010.9 hPa | 0 mm | 0.89 m/s, 202° | - | - |
| 1777979898 | 16.11° C | 72% | 1010.6 hPa | 0 mm | 1.34 m/s, 227° | - | - |
| 1777979006 | 15.56° C | 76% | 1010.6 hPa | 0 mm | 0.45 m/s, 226° | - | - |
| 1777978097 | 15.56° C | 76% | 1010.6 hPa | 0 mm | 0 m/s | - | - |
| 1777977195 | 15.56° C | 75% | 1010.6 hPa | 0 mm | 0.89 m/s, 215° | - | - |
| 1777976310 | 15.56° C | 75% | 1010.5 hPa | 0 mm | 0.89 m/s, 213° | - | - |
| 1777975436 | 15.56° C | 75% | 1010.3 hPa | 0 mm | 0.45 m/s, 219° | - | - |
| 1777974511 | 15.56° C | 76% | 1010.1 hPa | 0 mm | 0.45 m/s, 220° | - | - |
| 1777973603 | 13.89° C | 80% | 1009.9 hPa | 0 mm | 0 m/s | - | - |
| 1777972700 | 13.33° C | 82% | 1010 hPa | 0 mm | 0 m/s | - | - |
| 1777971812 | 13.89° C | 79% | 1009.9 hPa | 0 mm | 0 m/s | - | - |
| 1777970909 | 14.44° C | 76% | 1009.9 hPa | 0 mm | 0 m/s | - | - |
| 1777970004 | 15.56° C | 74% | 1010 hPa | 0 mm | 0 m/s | - | - |
| 1777969110 | 16.11° C | 72% | 1009.9 hPa | 0 mm | 0 m/s | - | - |
| 1777968204 | 16.67° C | 70% | 1009.9 hPa | 0 mm | 0 m/s | - | - |
| 1777967297 | 16.67° C | 70% | 1010 hPa | 0 mm | 0.89 m/s, 218° | - | - |
| 1777966412 | 16.11° C | 70% | 1010 hPa | 0 mm | 1.79 m/s, 169° | - | - |
| 1777965498 | 16.11° C | 71% | 1010 hPa | 0 mm | 0.45 m/s, 232° | - | - |
| 1777964610 | 15.56° C | 71% | 1010 hPa | 0 mm | 0.89 m/s, 217° | - | - |
| 1777963723 | 15.56° C | 73% | 1009.9 hPa | 0 mm | 0.89 m/s, 224° | - | - |
| 1777962793 | 15.56° C | 72% | 1010 hPa | 0 mm | 0.45 m/s, 209° | - | - |
| 1777961932 | 15.56° C | 71% | 1009.8 hPa | 0 mm | 1.79 m/s, 214° | - | - |
| 1777960998 | 15° C | 73% | 1009.9 hPa | 0 mm | 0 m/s | - | - |
| 1777960106 | 15.56° C | 71% | 1009.8 hPa | 0 mm | 0.45 m/s, 232° | - | - |
* Rain latest hour (hover to see other rain measurements)
** Current wind speed in m/s (hover to see current wind gust speed)